createdAt,value
2018-11-10T00:01:00.126Z,99845.38
2018-11-10T00:03:28.681Z,99852.23
2018-11-10T00:05:57.268Z,99846.61
2018-11-10T00:08:25.894Z,99841.67
2018-11-10T00:10:54.557Z,99842.41
2018-11-10T00:13:23.141Z,99839.74
2018-11-10T00:15:51.673Z,99834.80
2018-11-10T00:18:20.242Z,99846.52
2018-11-10T00:20:48.843Z,99844.24
2018-11-10T00:23:17.393Z,99841.36
2018-11-10T00:25:45.953Z,99844.21
2018-11-10T00:28:14.588Z,99838.48
2018-11-10T00:30:43.138Z,99837.95
2018-11-10T00:33:11.678Z,99834.34
2018-11-10T00:35:40.317Z,99829.84
2018-11-10T00:38:08.894Z,99817.39
2018-11-10T00:40:37.794Z,99822.11
2018-11-10T00:43:06.389Z,99826.13
2018-11-10T00:45:34.945Z,99826.31
2018-11-10T00:48:03.498Z,99830.30
2018-11-10T00:50:32.106Z,99823.11
2018-11-10T00:53:00.674Z,99827.92
2018-11-10T00:55:29.227Z,99822.66
2018-11-10T00:57:57.859Z,99821.02
2018-11-10T01:00:26.401Z,99819.06
2018-11-10T01:02:54.949Z,99814.04
2018-11-10T01:05:23.536Z,99818.27
2018-11-10T01:07:52.130Z,99814.34
2018-11-10T01:10:20.697Z,99817.21
2018-11-10T01:12:49.262Z,99810.70
2018-11-10T01:15:17.793Z,99809.55
2018-11-10T01:17:46.357Z,99808.91
2018-11-10T01:20:15.314Z,99802.44
2018-11-10T01:22:43.901Z,99796.48
2018-11-10T01:25:12.603Z,99803.39
2018-11-10T01:27:41.191Z,99799.08
2018-11-10T01:30:12.435Z,99795.16
2018-11-10T01:32:40.998Z,99795.07
2018-11-10T01:35:09.571Z,99784.48
2018-11-10T01:37:38.881Z,99792.64
2018-11-10T01:40:09.190Z,99791.16
2018-11-10T01:42:37.775Z,99792.03
2018-11-10T01:45:08.909Z,99787.45
2018-11-10T01:47:37.477Z,99785.95
2018-11-10T01:50:06.589Z,99780.31
2018-11-10T01:52:35.114Z,99771.59
2018-11-10T01:55:03.695Z,99764.03
2018-11-10T01:57:32.307Z,99756.87
2018-11-10T02:00:00.838Z,99766.61
2018-11-10T02:02:29.402Z,99762.89
2018-11-10T02:04:57.973Z,99765.67
2018-11-10T02:07:26.521Z,99764.90
2018-11-10T02:09:55.177Z,99757.42
2018-11-10T02:12:23.806Z,99762.33
2018-11-10T02:14:52.373Z,99752.38
2018-11-10T02:17:20.900Z,99757.63
2018-11-10T02:19:49.477Z,99755.24
2018-11-10T02:22:18.007Z,99751.78
2018-11-10T02:24:46.569Z,99754.80
2018-11-10T02:27:20.561Z,99755.95
2018-11-10T02:29:49.540Z,99756.05
2018-11-10T02:32:18.372Z,99756.05
2018-11-10T02:34:46.973Z,99752.34
2018-11-10T02:37:15.565Z,99753.08
2018-11-10T02:39:44.126Z,99747.44
2018-11-10T02:42:12.730Z,99747.31
2018-11-10T02:44:41.386Z,99748.34
2018-11-10T02:47:09.903Z,99740.34
2018-11-10T02:49:38.474Z,99743.73
2018-11-10T02:52:07.006Z,99741.70
2018-11-10T02:57:15.318Z,99739.55
2018-11-10T02:59:43.917Z,99747.86
2018-11-10T03:02:12.464Z,99749.41
2018-11-10T03:04:41.032Z,99743.86
2018-11-10T03:07:09.604Z,99740.70
2018-11-10T03:09:38.140Z,99737.52
2018-11-10T03:12:06.753Z,99746.25
2018-11-10T03:14:35.344Z,99747.67
2018-11-10T03:17:03.878Z,99749.61
2018-11-10T03:19:33.306Z,99743.06
2018-11-10T03:22:01.849Z,99740.39
2018-11-10T03:24:30.389Z,99738.55
2018-11-10T03:26:58.986Z,99741.73
2018-11-10T03:29:27.510Z,99735.99
2018-11-10T03:31:56.273Z,99730.53
2018-11-10T03:34:24.964Z,99727.56
2018-11-10T03:36:53.522Z,99723.13
2018-11-10T03:39:22.180Z,99721.80
2018-11-10T03:41:50.746Z,99713.31
2018-11-10T03:44:19.293Z,99710.64
2018-11-10T03:46:47.827Z,99711.86
2018-11-10T03:49:16.429Z,99704.46
2018-11-10T03:51:45.022Z,99707.43
2018-11-10T03:54:13.548Z,99712.44
2018-11-10T03:56:42.125Z,99722.06
2018-11-10T03:59:11.287Z,99722.06
2018-11-10T04:01:39.813Z,99728.80
2018-11-10T04:04:08.412Z,99730.90
2018-11-10T04:06:37.001Z,99724.65
2018-11-10T04:09:06.628Z,99719.35
2018-11-10T04:11:35.521Z,99718.91
2018-11-10T04:14:04.113Z,99713.07
2018-11-10T04:16:32.647Z,99711.56
2018-11-10T04:19:01.246Z,99714.61
2018-11-10T04:21:29.806Z,99716.70
2018-11-10T04:23:58.353Z,99720.25
2018-11-10T04:26:26.942Z,99712.36
2018-11-10T04:28:55.481Z,99720.59
2018-11-10T04:31:24.005Z,99723.87
2018-11-10T04:33:52.569Z,99713.42
2018-11-10T04:36:21.149Z,99709.87
2018-11-10T04:38:49.680Z,99720.34
2018-11-10T04:41:18.288Z,99718.71
2018-11-10T04:43:46.923Z,99716.32
2018-11-10T04:46:15.566Z,99718.87
2018-11-10T04:48:44.174Z,99725.73
2018-11-10T04:51:12.689Z,99721.03
2018-11-10T04:53:41.289Z,99725.30
2018-11-10T04:56:09.867Z,99728.98
2018-11-10T04:58:38.405Z,99731.42
2018-11-10T05:01:07.330Z,99733.64
2018-11-10T05:03:35.900Z,99734.00
2018-11-10T05:06:06.532Z,99737.84
2018-11-10T05:08:35.073Z,99728.20
2018-11-10T05:11:03.649Z,99728.20
2018-11-10T05:13:32.174Z,99726.31
2018-11-10T05:16:00.723Z,99727.14
2018-11-10T05:18:29.290Z,99719.50
2018-11-10T05:20:57.827Z,99727.01
2018-11-10T05:23:26.362Z,99728.55
2018-11-10T05:25:54.951Z,99723.11
2018-11-10T05:28:23.465Z,99726.70
2018-11-10T05:30:52.010Z,99726.39
2018-11-10T05:33:20.640Z,99722.39
2018-11-10T05:35:49.173Z,99727.01
2018-11-10T05:38:17.742Z,99722.81
2018-11-10T05:40:46.350Z,99718.41
2018-11-10T05:43:14.866Z,99726.25
2018-11-10T05:45:43.408Z,99722.39
2018-11-10T05:48:11.960Z,99724.75
2018-11-10T05:50:40.521Z,99720.45
2018-11-10T05:53:09.147Z,99723.93
2018-11-10T05:55:37.741Z,99718.16
2018-11-10T05:58:06.333Z,99721.64
2018-11-10T06:00:34.858Z,99721.34
2018-11-10T06:03:03.520Z,99720.11
2018-11-10T06:05:32.250Z,99712.26
2018-11-10T06:08:00.758Z,99711.95
2018-11-10T06:10:29.570Z,99714.78
2018-11-10T06:12:58.262Z,99715.33
2018-11-10T06:15:26.821Z,99711.64
2018-11-10T06:17:55.402Z,99707.89
2018-11-10T06:20:23.922Z,99717.59
2018-11-10T06:22:52.482Z,99711.64
2018-11-10T06:25:21.074Z,99713.11
2018-11-10T06:27:49.621Z,99714.11
2018-11-10T06:30:18.186Z,99716.08
2018-11-10T06:32:46.874Z,99710.55
2018-11-10T06:35:15.567Z,99711.81
2018-11-10T06:37:44.110Z,99709.59
2018-11-10T06:40:13.876Z,99708.05
2018-11-10T06:42:43.138Z,99712.45
2018-11-10T06:45:11.737Z,99718.42
2018-11-10T06:47:40.304Z,99718.80
2018-11-10T06:50:10.325Z,99717.61
2018-11-10T06:52:38.946Z,99718.93
2018-11-10T06:55:08.681Z,99721.73
2018-11-10T06:57:37.263Z,99724.64
2018-11-10T07:00:07.292Z,99723.25
2018-11-10T07:02:35.937Z,99723.11
2018-11-10T07:05:04.972Z,99723.05
2018-11-10T07:07:33.598Z,99722.69
2018-11-10T07:10:02.217Z,99722.59
2018-11-10T07:12:30.853Z,99722.09
2018-11-10T07:14:59.449Z,99717.05
2018-11-10T07:17:28.126Z,99716.95
2018-11-10T07:19:56.857Z,99713.56
2018-11-10T07:22:25.382Z,99711.77
2018-11-10T07:24:53.973Z,99715.39
2018-11-10T07:27:22.749Z,99713.08
2018-11-10T07:29:51.309Z,99715.17
2018-11-10T07:32:19.905Z,99706.49
2018-11-10T07:34:48.514Z,99708.36
2018-11-10T07:37:17.058Z,99707.53
2018-11-10T07:39:45.638Z,99713.84
2018-11-10T07:42:14.423Z,99716.19
2018-11-10T07:44:43.070Z,99716.69
2018-11-10T07:47:11.653Z,99709.23
2018-11-10T07:49:40.254Z,99717.27
2018-11-10T07:52:08.785Z,99715.84
2018-11-10T07:54:37.369Z,99712.47
2018-11-10T07:57:06.462Z,99707.80
2018-11-10T07:59:35.055Z,99708.78
2018-11-10T08:02:03.657Z,99704.53
2018-11-10T08:04:32.232Z,99699.63
2018-11-10T08:07:00.785Z,99700.97
2018-11-10T08:09:29.362Z,99706.27
2018-11-10T08:11:57.947Z,99709.68
2018-11-10T08:14:26.642Z,99702.81
2018-11-10T08:16:55.275Z,99700.70
2018-11-10T08:19:23.815Z,99702.55
2018-11-10T08:21:52.413Z,99699.17
2018-11-10T08:24:21.074Z,99692.00
2018-11-10T08:26:49.593Z,99684.98
2018-11-10T08:29:18.133Z,99689.48
2018-11-10T08:31:46.842Z,99682.41
2018-11-10T08:34:15.466Z,99685.94
2018-11-10T08:36:43.989Z,99684.30
2018-11-10T08:39:12.581Z,99686.13
2018-11-10T08:41:41.130Z,99680.41
2018-11-10T08:44:09.731Z,99679.98
2018-11-10T08:46:38.291Z,99682.25
2018-11-10T08:49:07.010Z,99684.22
2018-11-10T08:51:35.721Z,99681.96
2018-11-10T08:54:04.578Z,99684.77
2018-11-10T08:56:33.109Z,99686.34
2018-11-10T08:59:01.690Z,99676.70
2018-11-10T09:01:30.487Z,99674.97
2018-11-10T09:03:59.086Z,99678.77
2018-11-10T09:06:27.630Z,99683.59
2018-11-10T09:08:56.249Z,99689.34
2018-11-10T09:11:24.802Z,99681.64
2018-11-10T09:13:53.349Z,99688.25
2018-11-10T09:16:21.933Z,99684.42
2018-11-10T09:18:50.470Z,99677.05
2018-11-10T09:21:19.061Z,99678.99
2018-11-10T09:23:47.838Z,99684.41
2018-11-10T09:26:16.482Z,99682.88
2018-11-10T09:28:45.075Z,99684.59
2018-11-10T09:31:13.638Z,99684.98
2018-11-10T09:33:42.188Z,99677.59
2018-11-10T09:36:10.749Z,99686.56
2018-11-10T09:38:39.393Z,99681.54
2018-11-10T09:41:08.117Z,99689.39
2018-11-10T09:43:36.690Z,99680.48
2018-11-10T09:46:05.821Z,99688.67
2018-11-10T09:48:34.359Z,99686.28
2018-11-10T09:51:02.919Z,99683.96
2018-11-10T09:53:31.524Z,99682.77
2018-11-10T09:56:00.067Z,99688.03
2018-11-10T09:58:28.630Z,99684.52
2018-11-10T10:00:57.294Z,99687.50
2018-11-10T10:03:25.983Z,99682.38
2018-11-10T10:05:54.621Z,99681.69
2018-11-10T10:08:23.241Z,99674.84
2018-11-10T10:10:51.802Z,99680.50
2018-11-10T10:13:20.349Z,99676.23
2018-11-10T10:15:49.016Z,99674.16
2018-11-10T10:18:17.826Z,99671.80
2018-11-10T10:20:46.357Z,99673.87
2018-11-10T10:23:14.946Z,99671.02
2018-11-10T10:25:43.505Z,99666.00
2018-11-10T10:28:12.055Z,99662.61
2018-11-10T10:30:40.841Z,99662.41
2018-11-10T10:33:09.425Z,99664.07
2018-11-10T10:35:38.166Z,99665.64
2018-11-10T10:38:06.842Z,99665.30
2018-11-10T10:40:35.378Z,99660.20
2018-11-10T10:43:03.977Z,99655.95
2018-11-10T10:45:32.759Z,99651.17
2018-11-10T10:48:01.357Z,99651.49
2018-11-10T10:50:29.910Z,99651.53
2018-11-10T10:52:58.488Z,99649.51
2018-11-10T10:55:27.065Z,99645.08
2018-11-10T10:57:55.618Z,99640.61
2018-11-10T11:00:29.977Z,99638.36
2018-11-10T11:04:02.461Z,99640.02
2018-11-10T11:06:31.050Z,99637.58
2018-11-10T11:08:59.638Z,99641.18
2018-11-10T11:11:28.345Z,99639.61
2018-11-10T11:13:56.927Z,99629.91
2018-11-10T11:16:26.557Z,99634.61
2018-11-10T11:18:55.366Z,99626.16
2018-11-10T11:21:23.947Z,99631.31
2018-11-10T11:23:52.814Z,99629.38
2018-11-10T11:26:21.423Z,99622.42
2018-11-10T11:28:50.011Z,99625.47
2018-11-10T11:31:18.571Z,99625.81
2018-11-10T11:33:47.153Z,99625.28
2018-11-10T11:36:15.919Z,99619.11
2018-11-10T11:38:44.563Z,99611.59
2018-11-10T11:41:13.193Z,99611.59
2018-11-10T11:43:41.958Z,99610.22
2018-11-10T11:46:10.557Z,99615.63
2018-11-10T11:48:39.274Z,99609.19
2018-11-10T11:51:07.826Z,99605.80
2018-11-10T11:53:36.505Z,99608.52
2018-11-10T11:56:05.799Z,99605.92
2018-11-10T11:58:34.389Z,99606.11
2018-11-10T12:01:03.414Z,99601.48
2018-11-10T12:03:38.417Z,99600.45
2018-11-10T12:06:18.500Z,99601.31
2018-11-10T12:08:47.224Z,99599.19
2018-11-10T12:11:15.797Z,99593.52
2018-11-10T12:13:44.345Z,99607.52
2018-11-10T12:16:12.949Z,99610.55
2018-11-10T12:18:41.550Z,99600.78
2018-11-10T12:21:10.664Z,99597.19
2018-11-10T12:23:39.251Z,99600.22
2018-11-10T12:26:07.824Z,99592.73
2018-11-10T12:28:36.365Z,99591.47
2018-11-10T12:31:05.186Z,99584.20
2018-11-10T12:33:33.767Z,99593.97
2018-11-10T12:36:02.416Z,99589.34
2018-11-10T12:38:31.038Z,99588.50
2018-11-10T12:40:59.746Z,99591.36
2018-11-10T12:43:28.300Z,99595.31
2018-11-10T12:45:56.882Z,99590.34
2018-11-10T12:48:25.410Z,99587.90
2018-11-10T12:50:54.036Z,99579.91
2018-11-10T12:53:22.641Z,99579.69
2018-11-10T12:55:51.170Z,99578.91
2018-11-10T12:58:19.734Z,99586.77
2018-11-10T13:00:48.333Z,99575.20
2018-11-10T13:03:16.896Z,99574.92
2018-11-10T13:05:45.462Z,99576.30
2018-11-10T13:08:14.072Z,99579.52
2018-11-10T13:10:42.837Z,99576.80
2018-11-10T13:13:11.552Z,99575.39
2018-11-10T13:15:40.138Z,99581.31
2018-11-10T13:18:08.667Z,99578.34
2018-11-10T13:20:37.193Z,99578.88
2018-11-10T13:23:05.789Z,99577.84
2018-11-10T13:25:34.370Z,99575.45
2018-11-10T13:28:02.926Z,99574.41
2018-11-10T13:30:31.550Z,99574.30
2018-11-10T13:33:00.086Z,99573.21
2018-11-10T13:35:28.672Z,99573.23
2018-11-10T13:37:57.349Z,99566.73
2018-11-10T13:40:26.160Z,99570.80
2018-11-10T13:42:54.725Z,99574.78
2018-11-10T13:45:23.293Z,99570.43
2018-11-10T13:47:51.857Z,99570.77
2018-11-10T13:50:20.416Z,99565.86
2018-11-10T13:52:49.500Z,99567.52
2018-11-10T13:55:17.829Z,99563.11
2018-11-10T13:57:46.411Z,99556.48
2018-11-10T14:00:17.558Z,99563.66
2018-11-10T14:02:46.132Z,99560.53
2018-11-10T14:05:15.182Z,99553.17
2018-11-10T14:07:43.929Z,99562.75
2018-11-10T14:10:13.790Z,99552.52
2018-11-10T14:12:43.552Z,99555.61
2018-11-10T14:15:12.298Z,99561.80
2018-11-10T14:17:41.950Z,99562.86
2018-11-10T14:20:12.521Z,99558.66
2018-11-10T14:22:41.105Z,99565.44
2018-11-10T14:25:11.486Z,99571.06
2018-11-10T14:27:40.785Z,99576.58
2018-11-10T14:30:11.966Z,99575.81
2018-11-10T14:32:41.130Z,99580.84
2018-11-10T14:35:10.438Z,99579.34
2018-11-10T14:37:39.026Z,99583.81
2018-11-10T14:40:09.641Z,99586.81
2018-11-10T14:42:38.778Z,99583.11
2018-11-10T14:45:08.829Z,99584.80
2018-11-10T14:47:37.415Z,99587.67
2018-11-10T14:50:07.006Z,99592.45
2018-11-10T14:52:35.671Z,99596.31
2018-11-10T14:55:04.579Z,99597.55
2018-11-10T14:57:33.162Z,99605.27
2018-11-10T15:00:01.857Z,99605.78
2018-11-10T15:02:30.541Z,99611.16
2018-11-10T15:04:59.153Z,99607.23
2018-11-10T15:07:27.737Z,99621.19
2018-11-10T15:09:56.286Z,99622.98
2018-11-10T15:12:24.941Z,99621.64
2018-11-10T15:14:53.537Z,99623.64
2018-11-10T15:17:22.078Z,99628.99
2018-11-10T15:19:50.822Z,99629.52
2018-11-10T15:22:19.406Z,99629.97
2018-11-10T15:24:47.954Z,99629.70
2018-11-10T15:27:16.566Z,99626.77
2018-11-10T15:29:45.158Z,99622.34
2018-11-10T15:32:13.715Z,99624.49
2018-11-10T15:34:42.342Z,99628.06
2018-11-10T15:37:10.961Z,99622.78
2018-11-10T15:39:39.514Z,99627.44
2018-11-10T15:42:08.285Z,99626.14
2018-11-10T15:44:37.352Z,99629.06
2018-11-10T15:47:05.910Z,99619.58
2018-11-10T15:49:34.466Z,99621.69
2018-11-10T15:52:03.086Z,99623.98
2018-11-10T15:54:31.634Z,99622.91
2018-11-10T15:57:00.254Z,99617.81
2018-11-10T15:59:29.110Z,99623.55
2018-11-10T16:01:57.693Z,99622.73
2018-11-10T16:04:26.250Z,99624.75
2018-11-10T16:06:54.822Z,99620.33
2018-11-10T16:09:23.416Z,99627.67
2018-11-10T16:11:52.106Z,99623.33
2018-11-10T16:14:20.717Z,99621.92
2018-11-10T16:16:53.723Z,99621.56
2018-11-10T16:19:22.293Z,99625.34
2018-11-10T16:21:50.851Z,99616.68
2018-11-10T16:24:19.441Z,99621.30
2018-11-10T16:26:48.029Z,99620.48
2018-11-10T16:29:16.621Z,99624.03
2018-11-10T16:31:45.157Z,99624.79
2018-11-10T16:34:13.705Z,99626.50
2018-11-10T16:36:42.288Z,99614.47
2018-11-10T16:39:10.817Z,99625.09
2018-11-10T16:41:39.445Z,99623.29
2018-11-10T16:44:08.070Z,99620.81
2018-11-10T16:46:36.668Z,99624.88
2018-11-10T16:49:05.463Z,99622.53
2018-11-10T16:51:33.990Z,99620.72
2018-11-10T16:54:02.525Z,99626.89
2018-11-10T16:56:31.130Z,99625.89
2018-11-10T16:58:59.801Z,99630.59
2018-11-10T17:01:28.521Z,99633.77
2018-11-10T17:03:57.081Z,99628.43
2018-11-10T17:06:25.625Z,99632.73
2018-11-10T17:08:54.186Z,99630.28
2018-11-10T17:11:22.949Z,99633.77
2018-11-10T17:13:51.536Z,99637.23
2018-11-10T17:16:20.127Z,99633.34
2018-11-10T17:18:48.761Z,99638.30
2018-11-10T17:21:17.467Z,99636.80
2018-11-10T17:23:46.005Z,99634.23
2018-11-10T17:26:14.581Z,99632.59
2018-11-10T17:28:43.165Z,99633.85
2018-11-10T17:31:11.766Z,99642.20
2018-11-10T17:33:40.383Z,99643.41
2018-11-10T17:36:09.207Z,99640.14
2018-11-10T17:38:37.814Z,99638.00
2018-11-10T17:41:06.899Z,99635.63
2018-11-10T17:43:35.595Z,99642.67
2018-11-10T17:46:04.240Z,99643.80
2018-11-10T17:48:34.141Z,99639.87
2018-11-10T17:51:03.294Z,99637.33
2018-11-10T17:53:33.976Z,99638.28
2018-11-10T17:56:02.611Z,99641.64
2018-11-10T17:58:31.247Z,99635.78
2018-11-10T18:00:59.988Z,99638.36
2018-11-10T18:03:28.574Z,99642.67
2018-11-10T18:05:57.216Z,99642.37
2018-11-10T18:08:25.878Z,99644.22
2018-11-10T18:10:55.015Z,99639.87
2018-11-10T18:13:24.077Z,99646.96
2018-11-10T18:15:52.713Z,99641.50
2018-11-10T18:18:21.757Z,99645.03
2018-11-10T18:20:50.313Z,99641.86
2018-11-10T18:23:19.047Z,99647.28
2018-11-10T18:25:47.807Z,99648.00
2018-11-10T18:28:16.527Z,99649.56
2018-11-10T18:30:45.130Z,99648.62
2018-11-10T18:33:13.765Z,99648.31
2018-11-10T18:35:42.306Z,99649.73
2018-11-10T18:38:10.943Z,99651.11
2018-11-10T18:40:39.468Z,99646.20
2018-11-10T18:43:08.149Z,99650.94
2018-11-10T18:45:36.779Z,99652.36
2018-11-10T18:48:06.033Z,99647.72
2018-11-10T18:50:34.779Z,99647.02
2018-11-10T18:53:03.834Z,99646.51
2018-11-10T18:55:33.232Z,99643.45
2018-11-10T18:58:02.223Z,99650.42
2018-11-10T19:00:31.714Z,99647.67
2018-11-10T19:03:00.867Z,99646.03
2018-11-10T19:05:30.110Z,99650.03
2018-11-10T19:07:58.872Z,99648.30
2018-11-10T19:10:28.005Z,99647.78
2018-11-10T19:12:56.843Z,99640.91
2018-11-10T19:15:25.937Z,99640.30
2018-11-10T19:17:54.675Z,99639.27
2018-11-10T19:20:23.617Z,99644.65
2018-11-10T19:22:52.591Z,99641.70
2018-11-10T19:25:21.485Z,99639.91
2018-11-10T19:27:50.354Z,99636.66
2018-11-10T19:30:20.617Z,99639.04
2018-11-10T19:32:50.072Z,99639.97
2018-11-10T19:35:19.269Z,99641.05
2018-11-10T19:37:48.094Z,99645.28
2018-11-10T19:40:17.046Z,99647.78
2018-11-10T19:42:46.501Z,99647.62
2018-11-10T19:45:15.089Z,99647.95
2018-11-10T19:47:44.699Z,99644.22
2018-11-10T19:50:13.845Z,99644.82
2018-11-10T19:52:42.798Z,99647.92
2018-11-10T19:55:13.653Z,99649.05
2018-11-10T19:57:42.617Z,99645.55
2018-11-10T20:00:14.906Z,99654.03
2018-11-10T20:02:43.457Z,99648.72
2018-11-10T20:05:12.090Z,99650.16
2018-11-10T20:07:40.797Z,99651.44
2018-11-10T20:10:10.677Z,99649.99
2018-11-10T20:12:39.462Z,99652.00
2018-11-10T20:15:09.781Z,99640.55
2018-11-10T20:17:39.196Z,99644.39
2018-11-10T20:20:08.702Z,99648.78
2018-11-10T20:22:37.306Z,99646.12
2018-11-10T20:25:07.328Z,99649.99
2018-11-10T20:27:35.900Z,99640.61
2018-11-10T20:30:04.924Z,99641.11
2018-11-10T20:32:33.801Z,99640.80
2018-11-10T20:35:02.376Z,99640.92
2018-11-10T20:37:30.971Z,99649.34
2018-11-10T20:39:59.507Z,99646.62
2018-11-10T20:42:28.094Z,99648.02
2018-11-10T20:44:56.714Z,99635.83
2018-11-10T20:47:25.402Z,99641.08
2018-11-10T20:49:53.986Z,99647.80
2018-11-10T20:52:22.559Z,99642.02
2018-11-10T20:54:51.093Z,99643.34
2018-11-10T20:57:19.871Z,99641.00
2018-11-10T20:59:48.470Z,99642.52
2018-11-10T21:02:17.034Z,99642.89
2018-11-10T21:04:45.585Z,99635.23
2018-11-10T21:07:14.233Z,99640.61
2018-11-10T21:09:42.764Z,99634.02
2018-11-10T21:12:11.302Z,99642.10
2018-11-10T21:14:39.922Z,99640.66
2018-11-10T21:17:08.574Z,99637.19
2018-11-10T21:19:37.098Z,99634.87
2018-11-10T21:22:11.761Z,99629.61
2018-11-10T21:24:40.382Z,99626.44
2018-11-10T21:27:09.039Z,99629.36
2018-11-10T21:32:18.383Z,99627.41
2018-11-10T21:34:46.937Z,99633.40
2018-11-10T21:37:15.563Z,99635.32
2018-11-10T21:39:44.153Z,99630.01
2018-11-10T21:42:12.711Z,99629.39
2018-11-10T21:44:41.458Z,99628.56
2018-11-10T21:47:10.078Z,99629.61
2018-11-10T21:49:39.442Z,99625.79
2018-11-10T21:52:08.603Z,99627.84
2018-11-10T21:54:37.253Z,99625.59
2018-11-10T21:57:06.394Z,99615.47
2018-11-10T21:59:35.836Z,99624.58
2018-11-10T22:02:04.888Z,99621.31
2018-11-10T22:04:33.467Z,99621.42
2018-11-10T22:07:02.037Z,99612.25
2018-11-10T22:09:31.132Z,99619.16
2018-11-10T22:11:59.966Z,99620.89
2018-11-10T22:14:28.603Z,99620.89
2018-11-10T22:16:57.752Z,99620.89
2018-11-10T22:19:26.409Z,99624.08
2018-11-10T22:21:55.673Z,99615.11
2018-11-10T22:24:24.535Z,99623.09
2018-11-10T22:26:53.293Z,99621.42
2018-11-10T22:29:22.337Z,99612.72
2018-11-10T22:31:51.056Z,99617.22
2018-11-10T22:34:19.808Z,99611.59
2018-11-10T22:36:48.748Z,99612.36
2018-11-10T22:39:17.390Z,99613.22
2018-11-10T22:41:46.189Z,99616.28
2018-11-10T22:44:14.931Z,99615.83
2018-11-10T22:46:44.428Z,99610.97
2018-11-10T22:49:14.010Z,99610.26
2018-11-10T22:51:42.842Z,99608.98
2018-11-10T22:54:11.740Z,99610.63
2018-11-10T22:56:40.537Z,99610.31
2018-11-10T22:59:09.343Z,99602.03
2018-11-10T23:01:37.996Z,99603.05
2018-11-10T23:04:06.969Z,99606.93
2018-11-10T23:06:36.009Z,99605.04
2018-11-10T23:09:06.229Z,99601.66
2018-11-10T23:11:34.882Z,99600.18
2018-11-10T23:14:03.436Z,99608.66
2018-11-10T23:16:32.019Z,99607.42
2018-11-10T23:19:00.679Z,99604.14
2018-11-10T23:21:29.255Z,99606.91
2018-11-10T23:23:57.834Z,99603.75
2018-11-10T23:26:26.362Z,99599.25
2018-11-10T23:28:55.055Z,99603.34
2018-11-10T23:31:23.691Z,99597.92
2018-11-10T23:33:52.238Z,99601.20
2018-11-10T23:36:20.823Z,99604.45
2018-11-10T23:38:49.409Z,99609.00
2018-11-10T23:41:17.980Z,99604.59
2018-11-10T23:43:46.587Z,99600.84
2018-11-10T23:46:15.393Z,99603.44
2018-11-10T23:48:44.031Z,99600.16
2018-11-10T23:51:12.642Z,99596.54
2018-11-10T23:53:41.797Z,99595.92
2018-11-10T23:56:10.366Z,99588.34
2018-11-10T23:58:38.982Z,99595.72
